Time;durP1;ratioP1;P1;durP2;ratioP2;P2;SDS_P1;SDS_P2;PMS_P1;PMS_P2;Temp;Humidity;BMP_temperature;BMP_pressure;BME280_temperature;BME280_humidity;BME280_pressure;Samples;Min_cycle;Max_cycle;Signal;HPM_P1;HPM_P2
2021/06/08 00:01:14;;;;;;;4.05;2.25;;;19.00;99.90;;;;;;4960963;28;20023;-87
2021/06/08 00:03:39;;;;;;;4.68;2.30;;;19.00;99.90;;;;;;4957280;28;20040;-86
2021/06/08 00:06:05;;;;;;;5.85;2.33;;;18.90;99.90;;;;;;4955939;28;20027;-86
2021/06/08 00:08:31;;;;;;;6.40;2.33;;;18.90;99.90;;;;;;4957245;28;20043;-86
2021/06/08 00:10:56;;;;;;;5.43;2.38;;;18.90;99.90;;;;;;4957510;28;20512;-87
2021/06/08 00:13:22;;;;;;;5.72;2.40;;;18.80;99.90;;;;;;4956301;28;20031;-86
2021/06/08 00:15:48;;;;;;;6.45;2.25;;;18.80;99.90;;;;;;4957905;28;20476;-87
2021/06/08 00:18:13;;;;;;;5.28;3.25;;;18.70;99.90;;;;;;4954932;28;20062;-86
2021/06/08 00:20:39;;;;;;;5.55;2.85;;;18.60;99.90;;;;;;4958780;28;20033;-87
2021/06/08 00:23:05;;;;;;;8.82;2.67;;;18.60;99.90;;;;;;4956492;28;20522;-87
2021/06/08 00:25:30;;;;;;;5.18;2.70;;;18.60;99.90;;;;;;4952697;28;20572;-87
2021/06/08 00:27:57;;;;;;;4.97;2.45;;;18.60;99.90;;;;;;4956139;28;20030;-87
2021/06/08 00:30:24;;;;;;;4.40;2.60;;;18.50;99.90;;;;;;4943930;28;20023;-87
2021/06/08 00:32:50;;;;;;;3.90;2.33;;;18.50;99.90;;;;;;4957632;28;20027;-86
2021/06/08 00:35:15;;;;;;;4.25;2.72;;;18.40;99.90;;;;;;4957729;28;20428;-86
2021/06/08 00:37:41;;;;;;;3.90;2.33;;;18.40;99.90;;;;;;4956004;28;20027;-86
2021/06/08 00:40:07;;;;;;;4.88;2.42;;;18.30;99.90;;;;;;4958448;28;20031;-87
2021/06/08 00:42:36;;;;;;;4.90;2.50;;;18.40;99.90;;;;;;4955128;28;20059;-87
2021/06/08 00:45:04;;;;;;;6.22;3.25;;;18.30;99.90;;;;;;4953588;28;20557;-87
2021/06/08 00:47:30;;;;;;;3.38;2.50;;;18.30;99.90;;;;;;4955772;28;20027;-86
2021/06/08 00:49:56;;;;;;;3.15;2.22;;;18.20;99.90;;;;;;4954661;28;20031;-86
2021/06/08 00:52:22;;;;;;;5.15;2.80;;;18.20;99.90;;;;;;4955796;28;20078;-86
2021/06/08 00:54:48;;;;;;;5.95;2.80;;;18.20;99.90;;;;;;4942013;28;20036;-87
2021/06/08 00:57:14;;;;;;;5.57;2.45;;;18.20;99.90;;;;;;4955609;28;20038;-87
2021/06/08 00:59:39;;;;;;;6.28;2.97;;;18.10;99.90;;;;;;4956133;28;20600;-87
2021/06/08 01:02:05;;;;;;;6.00;2.72;;;18.20;99.90;;;;;;4953745;28;20024;-86
2021/06/08 01:04:31;;;;;;;4.07;2.90;;;18.20;99.90;;;;;;4955243;28;20045;-86
2021/06/08 01:06:57;;;;;;;8.80;2.90;;;18.20;99.90;;;;;;4955180;28;20381;-87
2021/06/08 01:09:23;;;;;;;9.32;2.58;;;18.10;99.90;;;;;;4957322;28;20030;-86
2021/06/08 01:11:48;;;;;;;4.32;2.90;;;18.10;99.90;;;;;;4954290;28;20033;-86
2021/06/08 01:14:14;;;;;;;6.65;2.70;;;18.10;99.90;;;;;;4954847;28;20023;-87
2021/06/08 01:16:40;;;;;;;7.85;2.95;;;18.10;99.90;;;;;;4953158;28;20094;-86
2021/06/08 01:19:06;;;;;;;6.30;2.83;;;18.10;99.90;;;;;;4956468;28;20027;-86
2021/06/08 01:21:33;;;;;;;3.83;2.67;;;18.10;99.90;;;;;;4952813;28;20019;-87
2021/06/08 01:23:59;;;;;;;4.75;2.70;;;18.10;99.90;;;;;;4957334;28;20042;-87
2021/06/08 01:26:27;;;;;;;3.08;2.58;;;18.10;99.90;;;;;;4951273;28;20383;-86
2021/06/08 01:28:56;;;;;;;4.07;2.97;;;18.00;99.90;;;;;;4958171;28;20042;-86
2021/06/08 01:31:25;;;;;;;5.40;3.10;;;18.00;99.90;;;;;;4952783;28;20095;-86
2021/06/08 01:33:51;;;;;;;6.78;3.10;;;18.00;99.90;;;;;;4959285;28;20035;-87
2021/06/08 01:36:22;;;;;;;6.47;3.13;;;18.00;99.90;;;;;;4952676;29;20488;-87
2021/06/08 01:38:51;;;;;;;3.92;2.90;;;18.00;99.90;;;;;;4957189;28;20031;-86
2021/06/08 01:41:23;;;;;;;5.40;3.58;;;17.90;99.90;;;;;;4951476;28;20102;-86
2021/06/08 01:43:50;;;;;;;5.40;3.17;;;17.90;99.90;;;;;;4956663;28;20023;-87
2021/06/08 01:46:18;;;;;;;5.95;3.25;;;17.80;99.90;;;;;;4952643;28;20026;-86
2021/06/08 01:48:44;;;;;;;5.60;3.25;;;17.80;99.90;;;;;;4956672;28;20034;-86
2021/06/08 01:51:40;;;;;;;5.45;3.05;;;17.70;99.90;;;;;;4967181;28;20024;-86
2021/06/08 01:54:20;;;;;;;5.57;3.17;;;17.70;99.90;;;;;;4960584;28;20031;-86
2021/06/08 01:56:51;;;;;;;4.60;3.13;;;17.70;99.90;;;;;;4952681;28;20053;-87
2021/06/08 01:59:32;;;;;;;5.72;3.45;;;17.70;99.90;;;;;;4959354;28;20033;-86
2021/06/08 02:02:27;;;;;;;4.97;3.13;;;17.60;99.90;;;;;;4953277;28;20057;-86
2021/06/08 02:05:08;;;;;;;4.88;3.50;;;17.60;99.90;;;;;;4949937;28;20254;-86
2021/06/08 02:07:41;;;;;;;5.43;2.95;;;17.50;99.90;;;;;;4969415;28;20564;-86
2021/06/08 02:10:24;;;;;;;4.50;3.20;;;17.50;99.90;;;;;;4954140;28;20524;-86
2021/06/08 02:12:58;;;;;;;6.43;3.63;;;17.40;99.90;;;;;;4954630;28;20057;-86
2021/06/08 02:15:29;;;;;;;5.63;3.53;;;17.40;99.90;;;;;;4947830;28;20023;-86
2021/06/08 02:17:55;;;;;;;6.47;3.70;;;17.40;99.90;;;;;;4954623;28;20655;-86
2021/06/08 02:20:26;;;;;;;6.05;3.40;;;17.30;99.90;;;;;;4956824;28;20031;-86
2021/06/08 02:22:57;;;;;;;4.90;3.53;;;17.30;99.90;;;;;;4955270;28;20120;-86
2021/06/08 02:25:25;;;;;;;8.27;4.07;;;17.30;99.90;;;;;;4952932;28;20404;-86
2021/06/08 02:27:53;;;;;;;5.88;3.38;;;17.30;99.90;;;;;;4955817;28;20414;-87
2021/06/08 02:30:20;;;;;;;7.25;3.92;;;17.30;99.90;;;;;;4951951;28;20472;-87
2021/06/08 02:32:48;;;;;;;7.90;3.85;;;17.30;99.90;;;;;;4955537;28;20020;-86
2021/06/08 02:35:15;;;;;;;4.97;4.30;;;17.30;99.90;;;;;;4951894;28;20031;-87
2021/06/08 02:37:41;;;;;;;5.15;3.83;;;17.30;99.90;;;;;;4955554;28;20020;-87
2021/06/08 02:40:09;;;;;;;7.28;3.53;;;17.40;99.90;;;;;;4952634;28;20041;-87
2021/06/08 02:42:35;;;;;;;9.13;4.30;;;17.40;99.90;;;;;;4969371;28;20024;-87
2021/06/08 02:45:03;;;;;;;6.78;4.18;;;17.40;99.90;;;;;;4953544;28;20533;-86
2021/06/08 02:47:29;;;;;;;10.90;4.18;;;17.40;99.90;;;;;;4951710;28;20373;-86
2021/06/08 02:49:58;;;;;;;10.20;4.07;;;17.40;99.90;;;;;;4960072;28;20461;-86
2021/06/08 02:52:25;;;;;;;6.43;4.13;;;17.40;99.90;;;;;;4953864;28;20023;-86
2021/06/08 02:54:52;;;;;;;5.68;3.80;;;17.40;99.90;;;;;;4957662;28;20062;-87
2021/06/08 02:57:22;;;;;;;6.85;4.40;;;17.40;99.90;;;;;;4953825;28;20091;-87
2021/06/08 02:59:50;;;;;;;6.95;4.07;;;17.40;99.90;;;;;;4953345;28;20027;-86
2021/06/08 03:02:17;;;;;;;6.35;4.30;;;17.40;99.90;;;;;;4953431;28;20027;-86
2021/06/08 03:04:54;;;;;;;6.93;4.20;;;17.30;99.90;;;;;;4960238;28;20078;-86
2021/06/08 03:07:23;;;;;;;6.28;4.13;;;17.30;99.90;;;;;;4953847;28;20086;-87
2021/06/08 03:10:06;;;;;;;8.75;4.40;;;17.30;99.90;;;;;;4960505;28;20530;-86
2021/06/08 03:12:40;;;;;;;16.85;5.05;;;17.30;99.90;;;;;;4953225;28;20020;-86
2021/06/08 03:15:07;;;;;;;6.57;4.40;;;17.30;99.90;;;;;;4953123;28;20035;-87
2021/06/08 03:17:34;;;;;;;7.65;4.82;;;17.20;99.90;;;;;;4953679;28;20427;-87
2021/06/08 03:20:10;;;;;;;7.78;4.55;;;17.20;99.90;;;;;;4953906;28;20107;-87
2021/06/08 03:22:36;;;;;;;6.57;4.63;;;17.20;99.90;;;;;;4955033;28;20498;-87
2021/06/08 03:25:03;;;;;;;6.30;4.28;;;17.20;99.90;;;;;;4947811;28;20396;-86
2021/06/08 03:27:29;;;;;;;6.20;4.10;;;17.20;99.90;;;;;;4954143;28;20479;-87
2021/06/08 03:29:58;;;;;;;6.25;4.35;;;17.10;99.90;;;;;;4970075;28;20038;-86
2021/06/08 03:32:25;;;;;;;11.05;4.75;;;17.10;99.90;;;;;;4953962;28;20028;-87
2021/06/08 03:34:51;;;;;;;5.28;4.20;;;17.10;99.90;;;;;;4959384;28;20015;-87
2021/06/08 03:37:19;;;;;;;9.45;4.80;;;17.00;99.90;;;;;;4971853;28;20019;-86
2021/06/08 03:39:47;;;;;;;9.07;4.45;;;17.00;99.90;;;;;;4955066;28;20472;-86
2021/06/08 03:42:13;;;;;;;6.78;4.53;;;17.00;99.90;;;;;;4955677;28;20450;-86
2021/06/08 03:44:39;;;;;;;9.32;5.00;;;16.90;99.90;;;;;;4956180;28;20126;-86
2021/06/08 03:47:05;;;;;;;6.93;4.35;;;16.80;99.90;;;;;;4957766;28;20027;-86
2021/06/08 03:49:32;;;;;;;7.38;4.53;;;16.80;99.90;;;;;;4957329;28;20062;-87
2021/06/08 03:51:58;;;;;;;10.20;4.50;;;16.80;99.90;;;;;;4957235;28;20023;-86
2021/06/08 03:54:24;;;;;;;10.32;4.70;;;16.80;99.90;;;;;;4962175;28;20037;-87
2021/06/08 03:56:52;;;;;;;10.20;4.72;;;16.70;99.90;;;;;;4958747;28;20053;-86
2021/06/08 03:59:22;;;;;;;7.07;4.60;;;16.70;99.90;;;;;;4963965;28;20051;-87
2021/06/08 04:01:49;;;;;;;7.15;4.93;;;16.70;99.90;;;;;;4954956;28;20446;-86
2021/06/08 04:04:16;;;;;;;7.13;4.97;;;16.60;99.90;;;;;;4962552;28;20035;-87
2021/06/08 04:06:42;;;;;;;6.68;4.65;;;16.60;99.90;;;;;;4954312;28;20045;-86
2021/06/08 04:09:09;;;;;;;5.75;4.68;;;16.60;99.90;;;;;;4960467;28;20026;-86
2021/06/08 04:11:36;;;;;;;7.63;4.47;;;16.60;99.90;;;;;;4955125;28;20102;-86
2021/06/08 04:14:03;;;;;;;8.95;5.22;;;16.50;99.90;;;;;;4974424;28;20148;-87
2021/06/08 04:16:29;;;;;;;7.55;4.90;;;16.50;99.90;;;;;;4956633;28;20098;-87
2021/06/08 04:18:55;;;;;;;6.53;4.70;;;16.50;99.90;;;;;;4960356;28;20115;-86
2021/06/08 04:21:23;;;;;;;7.47;5.05;;;16.50;99.90;;;;;;4958673;28;20026;-86
2021/06/08 04:23:56;;;;;;;10.35;4.82;;;16.50;99.90;;;;;;4960043;28;20488;-86
2021/06/08 04:26:23;;;;;;;8.27;5.47;;;16.50;99.90;;;;;;4974186;28;20062;-86
2021/06/08 04:28:49;;;;;;;7.65;5.32;;;16.50;99.90;;;;;;4961698;28;20028;-86
2021/06/08 04:31:14;;;;;;;7.82;5.13;;;16.50;99.90;;;;;;4961902;28;20035;-87
2021/06/08 04:33:45;;;;;;;7.80;5.30;;;16.50;99.90;;;;;;4961697;28;20078;-87
2021/06/08 04:36:11;;;;;;;9.68;5.70;;;16.50;99.90;;;;;;4963003;28;20038;-86
2021/06/08 04:38:38;;;;;;;11.25;5.28;;;16.50;99.90;;;;;;4971231;28;20071;-86
2021/06/08 04:41:05;;;;;;;8.95;5.45;;;16.60;99.90;;;;;;4953886;28;20078;-86
2021/06/08 04:43:31;;;;;;;8.50;5.70;;;16.50;99.90;;;;;;4954100;28;20122;-86
2021/06/08 04:46:07;;;;;;;9.70;5.55;;;16.50;99.90;;;;;;4952069;28;20038;-87
2021/06/08 04:48:34;;;;;;;7.55;5.65;;;16.50;99.90;;;;;;4953817;28;20025;-86
2021/06/08 04:51:00;;;;;;;8.15;5.50;;;16.60;99.90;;;;;;4952896;28;20577;-86
2021/06/08 04:53:26;;;;;;;7.22;5.20;;;16.60;99.90;;;;;;4953710;28;20046;-87
2021/06/08 04:55:53;;;;;;;7.72;5.35;;;16.60;99.90;;;;;;4952765;28;20031;-86
2021/06/08 04:58:20;;;;;;;10.02;5.55;;;16.60;99.90;;;;;;4953593;28;20051;-87
2021/06/08 05:01:27;;;;;;;6.13;5.43;;;16.60;99.90;;;;;;4951009;29;20500;-86
2021/06/08 05:03:59;;;;;;;9.63;5.60;;;16.70;99.90;;;;;;4969902;28;20050;-87
2021/06/08 05:06:32;;;;;;;8.80;5.80;;;16.70;99.90;;;;;;4952524;28;20059;-87
2021/06/08 05:09:02;;;;;;;8.75;5.57;;;16.70;99.90;;;;;;4954782;28;20019;-88
2021/06/08 05:11:38;;;;;;;6.70;5.35;;;16.80;99.90;;;;;;4952314;28;20030;-87
2021/06/08 05:14:07;;;;;;;7.88;6.40;;;16.80;99.90;;;;;;4951452;29;20017;-88
2021/06/08 05:16:33;;;;;;;6.95;5.97;;;16.80;99.90;;;;;;4952021;28;20023;-87
2021/06/08 05:19:00;;;;;;;5.90;5.30;;;16.80;99.90;;;;;;4960551;28;20082;-87
2021/06/08 05:21:26;;;;;;;8.32;5.82;;;16.90;99.90;;;;;;4956088;28;20035;-87
2021/06/08 05:23:53;;;;;;;7.00;5.22;;;16.90;99.90;;;;;;4957748;28;20042;-87
2021/06/08 05:26:21;;;;;;;9.65;5.40;;;17.00;99.90;;;;;;4952807;28;20091;-88
2021/06/08 05:28:47;;;;;;;7.40;5.05;;;17.00;99.90;;;;;;4958849;28;20027;-87
2021/06/08 05:31:18;;;;;;;9.32;5.57;;;17.10;99.90;;;;;;4952822;28;20054;-87
2021/06/08 05:33:44;;;;;;;8.63;5.25;;;17.10;99.90;;;;;;4959090;28;20031;-88
2021/06/08 05:36:09;;;;;;;9.00;5.57;;;17.20;99.90;;;;;;4952691;28;20031;-87
2021/06/08 05:38:37;;;;;;;5.88;5.13;;;17.30;99.90;;;;;;4958429;28;20114;-87
2021/06/08 05:41:10;;;;;;;8.52;4.90;;;17.30;99.90;;;;;;4952437;28;20091;-87
2021/06/08 05:43:39;;;;;;;9.70;5.90;;;17.40;99.90;;;;;;4960346;28;20045;-87
2021/06/08 05:46:06;;;;;;;5.97;4.93;;;17.50;99.90;;;;;;4941814;29;20027;-88
2021/06/08 05:48:34;;;;;;;8.52;5.97;;;17.60;99.90;;;;;;4971406;28;20069;-87
2021/06/08 05:51:02;;;;;;;8.45;5.50;;;17.60;99.90;;;;;;4952435;28;20016;-88
2021/06/08 05:53:28;;;;;;;8.10;5.50;;;17.70;99.90;;;;;;4959931;28;20056;-87
2021/06/08 05:55:57;;;;;;;8.93;6.50;;;17.80;99.90;;;;;;4950426;28;20074;-87
2021/06/08 05:58:29;;;;;;;10.40;5.47;;;17.90;99.90;;;;;;4954382;28;20046;-88
2021/06/08 06:00:57;;;;;;;9.77;6.13;;;18.00;99.90;;;;;;4948351;28;20027;-78
2021/06/08 06:03:24;;;;;;;11.45;6.15;;;18.10;99.90;;;;;;4951345;28;20049;-78
2021/06/08 06:05:52;;;;;;;10.45;5.55;;;18.20;99.90;;;;;;4953124;28;20530;-78
2021/06/08 06:08:18;;;;;;;7.60;5.47;;;18.20;99.90;;;;;;4959677;28;20042;-78
2021/06/08 06:10:48;;;;;;;9.27;5.50;;;18.40;99.90;;;;;;4954238;28;20019;-78
2021/06/08 06:13:23;;;;;;;8.90;5.88;;;18.40;99.90;;;;;;4958684;28;20015;-78
2021/06/08 06:15:50;;;;;;;9.32;5.70;;;18.50;99.90;;;;;;4955499;28;20372;-78
2021/06/08 06:18:19;;;;;;;12.38;5.93;;;18.60;99.90;;;;;;4960986;28;20018;-78
2021/06/08 06:20:48;;;;;;;9.43;5.50;;;18.70;99.90;;;;;;4957621;28;20027;-79
2021/06/08 06:23:19;;;;;;;7.97;5.20;;;18.70;99.90;;;;;;4959261;28;20031;-78
2021/06/08 06:25:46;;;;;;;9.20;5.63;;;18.80;99.90;;;;;;4954105;28;20162;-78
2021/06/08 06:28:13;;;;;;;11.18;6.05;;;18.80;99.90;;;;;;4954487;28;20026;-79
2021/06/08 06:30:40;;;;;;;9.70;5.60;;;18.90;99.90;;;;;;4967046;28;20028;-78
2021/06/08 06:33:06;;;;;;;8.02;5.20;;;18.90;99.90;;;;;;4955036;28;20163;-79
2021/06/08 06:35:34;;;;;;;7.60;5.45;;;18.90;99.90;;;;;;4953163;28;20038;-79
2021/06/08 06:38:06;;;;;;;10.10;4.88;;;19.00;99.90;;;;;;4955551;28;20280;-79
2021/06/08 06:40:38;;;;;;;12.80;5.88;;;19.10;99.90;;;;;;4954106;28;20027;-79
2021/06/08 06:43:06;;;;;;;11.18;5.45;;;19.10;99.90;;;;;;4955234;28;20023;-78
2021/06/08 06:45:34;;;;;;;9.75;4.55;;;19.20;99.90;;;;;;4954782;28;20034;-78
2021/06/08 06:48:02;;;;;;;9.23;4.60;;;19.30;99.90;;;;;;4956337;28;20030;-78
2021/06/08 06:50:31;;;;;;;11.45;4.88;;;19.40;99.90;;;;;;4955447;28;20484;-78
2021/06/08 06:52:57;;;;;;;8.93;5.05;;;19.40;99.90;;;;;;4955941;28;20513;-79
2021/06/08 06:55:25;;;;;;;9.25;4.30;;;19.50;99.90;;;;;;4952858;28;20025;-78
2021/06/08 06:57:56;;;;;;;13.07;4.38;;;19.60;99.90;;;;;;4955203;28;20055;-79
2021/06/08 07:00:24;;;;;;;8.18;4.80;;;19.70;99.90;;;;;;4957006;28;20030;-78
2021/06/08 07:02:52;;;;;;;8.88;4.25;;;19.80;99.90;;;;;;4953395;28;20115;-79
2021/06/08 07:05:22;;;;;;;7.53;4.63;;;19.80;99.90;;;;;;4952602;28;20074;-78
2021/06/08 07:07:49;;;;;;;9.82;5.00;;;19.90;99.90;;;;;;4953900;28;20030;-79
2021/06/08 07:10:17;;;;;;;8.82;4.50;;;19.90;99.90;;;;;;4956810;28;20027;-79
2021/06/08 07:12:45;;;;;;;9.73;4.50;;;20.00;99.90;;;;;;4956986;28;20095;-80
2021/06/08 07:15:12;;;;;;;8.30;4.90;;;20.10;99.90;;;;;;4957529;28;20489;-80
2021/06/08 07:17:38;;;;;;;6.40;4.20;;;20.10;99.90;;;;;;4956993;28;20028;-81
2021/06/08 07:20:07;;;;;;;7.82;4.72;;;20.20;99.90;;;;;;4958972;28;20038;-81
2021/06/08 07:22:36;;;;;;;9.52;4.38;;;20.20;99.90;;;;;;4956794;28;20023;-81
2021/06/08 07:25:04;;;;;;;9.25;4.78;;;20.30;99.90;;;;;;4958746;28;20031;-80
2021/06/08 07:27:30;;;;;;;10.90;4.05;;;20.30;99.90;;;;;;4954692;28;20031;-81
2021/06/08 07:29:56;;;;;;;8.25;4.30;;;20.40;99.90;;;;;;4953694;28;20404;-80
2021/06/08 07:32:35;;;;;;;7.45;3.80;;;20.50;99.90;;;;;;4956815;28;20054;-81
2021/06/08 07:35:14;;;;;;;8.48;4.50;;;20.50;99.90;;;;;;4954880;28;20039;-80
2021/06/08 07:37:46;;;;;;;11.02;3.67;;;20.70;99.90;;;;;;4955121;28;20114;-80
2021/06/08 07:40:37;;;;;;;10.55;4.22;;;20.70;99.90;;;;;;4961701;28;20035;-81
2021/06/08 07:43:05;;;;;;;8.45;3.20;;;20.70;99.90;;;;;;4958948;28;20037;-81
2021/06/08 07:45:36;;;;;;;6.57;3.72;;;20.80;99.90;;;;;;4961747;28;20503;-81
2021/06/08 07:48:05;;;;;;;11.45;3.95;;;20.90;99.90;;;;;;4958810;28;20038;-80
2021/06/08 07:50:36;;;;;;;6.90;3.90;;;20.90;99.90;;;;;;4953449;28;20415;-80
2021/06/08 07:53:03;;;;;;;8.52;3.80;;;21.00;99.90;;;;;;4958847;28;20015;-81
2021/06/08 07:55:31;;;;;;;7.45;3.65;;;21.10;99.90;;;;;;4953009;28;20074;-81
2021/06/08 07:57:57;;;;;;;9.77;3.83;;;21.10;99.90;;;;;;4954257;28;20078;-81
2021/06/08 08:00:22;;;;;;;8.93;3.35;;;21.20;99.90;;;;;;4956213;29;20142;-82
2021/06/08 08:02:51;;;;;;;10.48;4.50;;;21.20;99.90;;;;;;4956339;28;20035;-80
2021/06/08 08:05:19;;;;;;;7.20;3.90;;;21.30;99.90;;;;;;4954617;28;20368;-79
2021/06/08 08:07:47;;;;;;;8.02;3.95;;;21.40;99.90;;;;;;4959201;28;20507;-80
2021/06/08 08:10:13;;;;;;;5.10;3.35;;;21.40;99.90;;;;;;4952763;28;20030;-79
2021/06/08 08:12:41;;;;;;;7.97;4.10;;;21.50;99.90;;;;;;4953173;28;20038;-81
2021/06/08 08:15:09;;;;;;;10.68;3.50;;;21.60;99.90;;;;;;4955217;28;20023;-80
2021/06/08 08:17:38;;;;;;;7.22;3.35;;;21.70;99.90;;;;;;4956076;28;20041;-80
2021/06/08 08:20:07;;;;;;;7.47;3.08;;;21.80;99.90;;;;;;4950234;28;20039;-80
2021/06/08 08:22:34;;;;;;;8.82;2.95;;;21.90;99.90;;;;;;4955554;28;20039;-79
2021/06/08 08:24:59;;;;;;;7.55;3.13;;;22.00;99.90;;;;;;4961467;28;20091;-79
2021/06/08 08:27:26;;;;;;;8.15;3.42;;;22.00;99.90;;;;;;4955521;28;20464;-80
2021/06/08 08:29:52;;;;;;;7.75;3.53;;;22.00;99.90;;;;;;4963463;28;20111;-80
2021/06/08 08:32:18;;;;;;;7.18;3.35;;;22.00;99.90;;;;;;4956496;28;20210;-79
2021/06/08 08:34:44;;;;;;;8.27;3.42;;;22.10;99.90;;;;;;4956082;28;20071;-79
2021/06/08 08:37:10;;;;;;;7.20;3.05;;;22.30;99.90;;;;;;4954248;28;20030;-80
2021/06/08 08:39:36;;;;;;;9.68;3.25;;;22.30;99.90;;;;;;4953749;28;20078;-79
2021/06/08 08:42:05;;;;;;;10.45;3.45;;;22.40;99.90;;;;;;4953248;28;20031;-79
2021/06/08 08:44:31;;;;;;;7.43;3.05;;;22.50;99.90;;;;;;4953825;28;20500;-79
2021/06/08 08:46:57;;;;;;;6.80;3.15;;;22.60;99.90;;;;;;4954154;28;20015;-80
2021/06/08 08:49:22;;;;;;;6.68;3.30;;;22.60;99.40;;;;;;4956096;28;20515;-79
2021/06/08 08:51:49;;;;;;;8.10;3.10;;;22.60;99.30;;;;;;4952395;28;20023;-79
2021/06/08 08:54:20;;;;;;;6.82;3.42;;;22.60;99.30;;;;;;4952152;28;20042;-80
2021/06/08 08:56:46;;;;;;;5.45;3.20;;;22.70;99.50;;;;;;4949769;28;20392;-80
2021/06/08 08:59:17;;;;;;;8.10;3.15;;;22.80;99.30;;;;;;4953531;28;20260;-79
2021/06/08 09:01:47;;;;;;;6.03;2.85;;;22.80;99.30;;;;;;4951343;28;20031;-78
2021/06/08 09:04:14;;;;;;;9.40;3.05;;;22.80;99.50;;;;;;4953531;28;20031;-80
2021/06/08 09:06:40;;;;;;;5.90;3.20;;;22.90;99.60;;;;;;4967366;28;20034;-80
2021/06/08 09:09:08;;;;;;;7.07;3.10;;;22.90;99.40;;;;;;4959689;28;20019;-78
2021/06/08 09:11:40;;;;;;;11.23;3.40;;;23.00;99.10;;;;;;4955100;28;20035;-78
2021/06/08 09:14:06;;;;;;;8.93;3.60;;;22.90;99.10;;;;;;4949838;28;20031;-78
2021/06/08 09:16:33;;;;;;;7.25;2.92;;;22.90;99.20;;;;;;4955982;28;20027;-79
2021/06/08 09:19:06;;;;;;;6.35;3.33;;;23.00;99.20;;;;;;4962784;28;20043;-78
2021/06/08 09:21:33;;;;;;;7.03;3.17;;;23.10;98.80;;;;;;4956922;28;20047;-79
2021/06/08 09:24:20;;;;;;;7.38;3.25;;;23.10;98.60;;;;;;4960095;28;20075;-78
2021/06/08 09:26:49;;;;;;;7.90;2.58;;;23.20;97.90;;;;;;4953439;28;20039;-78
2021/06/08 09:29:38;;;;;;;5.70;2.85;;;23.30;97.70;;;;;;4960283;28;20029;-79
2021/06/08 09:32:24;;;;;;;5.75;2.50;;;23.30;97.10;;;;;;4953440;28;20464;-78
2021/06/08 09:34:55;;;;;;;3.80;2.42;;;23.30;96.50;;;;;;4960554;28;20387;-78
2021/06/08 09:37:39;;;;;;;3.60;2.17;;;23.30;96.30;;;;;;4954613;28;20053;-78
2021/06/08 09:40:26;;;;;;;5.50;2.28;;;23.30;96.40;;;;;;4957096;28;20027;-78
2021/06/08 09:43:05;;;;;;;3.70;1.90;;;23.40;96.20;;;;;;4955644;28;20550;-79
2021/06/08 09:45:40;;;;;;;5.70;3.00;;;23.50;96.00;;;;;;4952831;28;20050;-79
2021/06/08 09:48:06;;;;;;;6.45;2.25;;;23.50;95.40;;;;;;4950207;28;20023;-79
2021/06/08 09:50:41;;;;;;;6.35;2.42;;;23.60;95.70;;;;;;4957782;28;20027;-78
2021/06/08 09:53:22;;;;;;;2.70;2.30;;;23.70;95.70;;;;;;4951659;28;20027;-79
2021/06/08 09:56:03;;;;;;;6.28;2.33;;;23.70;95.60;;;;;;4953843;28;20066;-78
2021/06/08 09:58:30;;;;;;;10.32;2.00;;;23.60;94.90;;;;;;4952748;28;20043;-79
2021/06/08 10:01:20;;;;;;;3.17;2.58;;;23.70;95.60;;;;;;4952891;28;20031;-79
2021/06/08 10:03:51;;;;;;;13.85;2.80;;;23.90;95.30;;;;;;4954151;28;20035;-78
2021/06/08 10:06:34;;;;;;;7.05;2.70;;;24.00;94.80;;;;;;4951909;28;20078;-88
2021/06/08 10:09:07;;;;;;;8.10;2.55;;;24.00;94.60;;;;;;4954136;28;20357;-91
2021/06/08 10:11:35;;;;;;;4.85;2.15;;;24.00;94.70;;;;;;4952175;28;20066;-91
2021/06/08 10:14:17;;;;;;;8.55;2.97;;;24.10;93.60;;;;;;4956045;28;20023;-78
2021/06/08 10:16:43;;;;;;;11.85;2.47;;;24.10;93.50;;;;;;4950335;28;20050;-79
2021/06/08 10:19:10;;;;;;;6.45;2.10;;;24.20;93.70;;;;;;4955006;28;20078;-78
2021/06/08 10:21:47;;;;;;;9.25;2.10;;;24.20;93.10;;;;;;4950395;28;20019;-78
2021/06/08 10:24:21;;;;;;;2.60;2.20;;;24.30;92.80;;;;;;4955287;28;20039;-78
2021/06/08 10:26:51;;;;;;;;;;;24.40;92.90;;;;;;4951592;28;20020;-79
2021/06/08 10:29:25;;;;;;;6.22;1.92;;;24.50;92.20;;;;;;4952620;28;20367;-92
2021/06/08 10:31:52;;;;;;;9.57;2.40;;;24.60;90.60;;;;;;4950326;28;20083;-78
2021/06/08 10:34:18;;;;;;;10.43;2.10;;;24.80;91.60;;;;;;4950349;29;20126;-79
2021/06/08 10:36:44;;;;;;;5.35;1.60;;;24.80;89.80;;;;;;4952995;28;20503;-78
2021/06/08 10:39:16;;;;;;;3.95;1.63;;;24.80;83.00;;;;;;4955304;28;20042;-78
2021/06/08 10:41:44;;;;;;;2.05;1.30;;;24.80;86.20;;;;;;4952040;28;20018;-79
2021/06/08 10:44:25;;;;;;;8.13;1.60;;;24.90;83.50;;;;;;4958414;28;20407;-79
2021/06/08 10:46:55;;;;;;;4.93;1.60;;;25.00;84.70;;;;;;4955554;28;20234;-78
2021/06/08 10:49:37;;;;;;;3.03;1.35;;;25.10;83.00;;;;;;4943378;29;20403;-78
2021/06/08 10:52:07;;;;;;;3.78;1.20;;;25.30;82.80;;;;;;4956895;28;20042;-78
2021/06/08 10:54:44;;;;;;;4.03;1.65;;;25.30;78.40;;;;;;4959338;28;20033;-79
2021/06/08 10:57:14;;;;;;;1.95;1.08;;;25.20;80.80;;;;;;4972118;28;20047;-78
2021/06/08 10:59:51;;;;;;;3.38;1.45;;;25.30;76.90;;;;;;4974358;28;20033;-78
2021/06/08 11:02:59;;;;;;;3.58;1.30;;;25.40;78.40;;;;;;4969434;28;20504;-79
2021/06/08 11:05:47;;;;;;;2.25;1.23;;;25.30;76.30;;;;;;4951801;29;20043;-79
2021/06/08 11:08:14;;;;;;;5.55;1.92;;;25.30;75.00;;;;;;4958948;28;20043;-79
2021/06/08 11:10:42;;;;;;;5.72;1.75;;;25.50;76.60;;;;;;4954777;28;20563;-79
2021/06/08 11:13:08;;;;;;;4.53;2.30;;;25.30;75.90;;;;;;4970840;28;20027;-78
2021/06/08 11:15:35;;;;;;;3.08;1.50;;;25.40;75.00;;;;;;4956186;28;20023;-79
2021/06/08 11:18:21;;;;;;;5.85;1.92;;;25.40;73.60;;;;;;4971211;28;20493;-79
2021/06/08 11:21:10;;;;;;;3.97;2.15;;;25.50;73.60;;;;;;4953355;28;20071;-79
2021/06/08 11:23:43;;;;;;;5.40;1.70;;;25.40;73.20;;;;;;4953586;28;20031;-79
2021/06/08 11:26:14;;;;;;;5.65;1.40;;;25.60;73.10;;;;;;4953020;29;20460;-79
2021/06/08 11:28:43;;;;;;;6.57;1.55;;;26.00;71.10;;;;;;4962886;28;20462;-79
2021/06/08 11:31:09;;;;;;;2.25;1.10;;;26.00;67.60;;;;;;4954715;28;20036;-78
2021/06/08 11:33:37;;;;;;;2.35;1.30;;;25.80;71.40;;;;;;4962538;28;20022;-79
2021/06/08 11:36:28;;;;;;;4.40;1.52;;;25.80;72.20;;;;;;4954031;28;20033;-79
2021/06/08 11:38:56;;;;;;;4.82;1.25;;;25.90;72.80;;;;;;4951232;28;20066;-80
2021/06/08 11:41:22;;;;;;;5.85;1.50;;;26.00;69.10;;;;;;4952894;28;20051;-80
2021/06/08 11:44:00;;;;;;;4.85;1.52;;;26.20;72.00;;;;;;4954756;28;20035;-79
2021/06/08 11:46:53;;;;;;;2.15;1.33;;;26.00;71.50;;;;;;4954062;28;20267;-79
2021/06/08 11:49:22;;;;;;;3.45;1.30;;;25.80;71.40;;;;;;4961624;28;20412;-79
2021/06/08 11:52:09;;;;;;;2.80;1.85;;;25.70;69.30;;;;;;4954846;28;20063;-79
2021/06/08 11:54:34;;;;;;;2.58;1.40;;;25.90;72.80;;;;;;4957731;28;20045;-80
2021/06/08 11:57:05;;;;;;;2.90;1.80;;;26.10;72.30;;;;;;4955036;28;20173;-80
2021/06/08 11:59:43;;;;;;;5.03;2.03;;;26.20;75.00;;;;;;4963118;28;20027;-79
2021/06/08 12:02:25;;;;;;;4.75;2.00;;;26.40;76.90;;;;;;4969772;28;20031;-79
2021/06/08 12:05:12;;;;;;;5.97;1.92;;;26.70;76.20;;;;;;4959334;28;20035;-79
2021/06/08 12:07:48;;;;;;;6.28;2.35;;;26.80;78.60;;;;;;4956925;28;20058;-79
2021/06/08 12:10:32;;;;;;;5.53;2.20;;;26.90;78.90;;;;;;4961025;28;20031;-79
2021/06/08 12:12:59;;;;;;;3.38;2.20;;;27.00;75.30;;;;;;4958242;28;20500;-79
2021/06/08 12:15:30;;;;;;;8.60;3.15;;;27.10;76.50;;;;;;4959934;28;20082;-79
2021/06/08 12:18:03;;;;;;;4.25;2.33;;;27.00;76.50;;;;;;4958223;28;20491;-80
2021/06/08 12:20:29;;;;;;;6.75;2.10;;;26.80;76.50;;;;;;4965928;28;20029;-80
2021/06/08 12:22:55;;;;;;;5.20;1.80;;;26.80;75.90;;;;;;4959542;28;20042;-79
2021/06/08 12:25:20;;;;;;;5.38;2.35;;;26.90;76.50;;;;;;4966073;28;20042;-79
2021/06/08 12:27:47;;;;;;;4.95;2.40;;;27.00;75.70;;;;;;4956902;28;20500;-79
2021/06/08 12:30:28;;;;;;;5.22;2.20;;;27.10;76.80;;;;;;4961271;28;20038;-79
2021/06/08 12:32:56;;;;;;;6.43;2.22;;;27.60;73.30;;;;;;4957158;28;20232;-79
2021/06/08 12:35:36;;;;;;;3.35;2.20;;;27.60;71.80;;;;;;4974828;28;20237;-79
2021/06/08 12:38:17;;;;;;;5.55;1.77;;;27.50;73.20;;;;;;4956950;28;20054;-79
2021/06/08 12:40:55;;;;;;;5.25;1.90;;;27.50;74.00;;;;;;4955045;28;20106;-80
2021/06/08 12:43:21;;;;;;;3.78;1.95;;;27.40;72.80;;;;;;4956484;28;20023;-79
2021/06/08 12:45:55;;;;;;;3.72;1.90;;;27.60;72.30;;;;;;4953234;28;20038;-79
2021/06/08 12:48:20;;;;;;;7.47;2.08;;;27.70;68.10;;;;;;4959887;28;20395;-79
2021/06/08 12:50:46;;;;;;;3.97;2.15;;;27.70;71.10;;;;;;4956208;28;20031;-79
2021/06/08 12:53:18;;;;;;;4.53;1.90;;;27.80;69.10;;;;;;4955239;28;20027;-79
2021/06/08 12:55:46;;;;;;;6.43;1.90;;;27.70;70.20;;;;;;4953752;28;20515;-78
2021/06/08 12:58:12;;;;;;;4.47;2.13;;;27.80;68.30;;;;;;4958719;28;20042;-78
2021/06/08 13:00:38;;;;;;;5.32;1.90;;;27.80;69.80;;;;;;4957546;28;20027;-78